KPRX/PRX METAR and TAF weather

Enter ICAO airport designator
Station Type Date Time Source
KPRX METAR 2021/01/27 13:56 UTC NOAA

KPRX 271356Z AUTO 34008KT 9SM CLR 02/00 A3022 RMK AO2 SLP251 T00170000 FZRANO


Station Type Date Time Source
KPRX Decoded METAR 2021/01/27 13:56 UTC NOAA

Paris / Cox Field, TX, United States (KPRX) 33-38N 095-27W
Jan 27, 2021 - 08:56 AM EST / 2021.01.27 1356 UTC
Wind: from the NNW (340 degrees) at 9 MPH (8 KT):0
Visibility: 9 mile(s):0
Sky conditions: clear
Temperature: 35.1 F (1.7 C)
Dew Point: 32.0 F (0.0 C)
Relative Humidity: 88%
Pressure (altimeter): 30.22 in. Hg (1023 hPa)
ob: KPRX 271356Z AUTO 34008KT 9SM CLR 02/00 A3022 RMK AO2 SLP251 T00170000 FZRANO
cycle: 14

Station Type Date Time Source
KPRX TAF UTC NOAA

Error!

Example: see airport list